createdAt,value
2022-10-13T00:00:51.104Z,16.15
2022-10-13T00:03:18.610Z,15.88
2022-10-13T00:05:47.211Z,17.13
2022-10-13T00:08:14.977Z,15.98
2022-10-13T00:10:42.480Z,15.90
2022-10-13T00:13:10.081Z,16.58
2022-10-13T00:15:38.815Z,16.08
2022-10-13T00:18:06.289Z,16.50
2022-10-13T00:20:33.553Z,16.70
2022-10-13T00:23:00.697Z,15.90
2022-10-13T00:25:28.011Z,15.57
2022-10-13T00:27:55.127Z,14.95
2022-10-13T00:30:22.248Z,15.13
2022-10-13T00:32:49.451Z,16.05
2022-10-13T00:35:16.596Z,16.27
2022-10-13T00:37:43.714Z,16.45
2022-10-13T00:40:11.378Z,16.35
2022-10-13T00:42:41.616Z,17.02
2022-10-13T00:45:29.720Z,16.15
2022-10-13T00:47:58.376Z,16.13
2022-10-13T00:50:30.386Z,15.18
2022-10-13T00:52:58.469Z,15.07
2022-10-13T00:55:27.799Z,15.63
2022-10-13T00:57:56.121Z,14.68
2022-10-13T01:00:24.382Z,13.63
2022-10-13T01:02:51.888Z,12.68
2022-10-13T01:05:20.490Z,13.18
2022-10-13T01:07:49.279Z,12.90
2022-10-13T01:10:24.808Z,13.07
2022-10-13T01:13:04.040Z,13.68
2022-10-13T01:15:34.963Z,13.52
2022-10-13T01:18:15.403Z,14.85
2022-10-13T01:20:54.597Z,15.10
2022-10-13T01:23:31.214Z,14.65
2022-10-13T01:26:18.394Z,15.07
2022-10-13T01:28:48.619Z,13.88
2022-10-13T01:31:20.647Z,13.65
2022-10-13T01:33:56.081Z,14.13
2022-10-13T01:36:32.377Z,13.65
2022-10-13T01:39:14.821Z,13.60
2022-10-13T01:41:46.936Z,13.55
2022-10-13T01:44:37.681Z,13.32
2022-10-13T01:47:06.182Z,14.25
2022-10-13T01:49:34.966Z,13.98
2022-10-13T01:52:09.891Z,14.18
2022-10-13T01:54:37.082Z,15.93
2022-10-13T01:57:04.307Z,15.70
2022-10-13T01:59:36.108Z,15.10
2022-10-13T02:02:13.832Z,15.55
2022-10-13T02:04:54.089Z,15.43
2022-10-13T02:07:24.409Z,15.75
2022-10-13T02:09:57.821Z,15.90
2022-10-13T02:12:33.229Z,14.35
2022-10-13T02:15:01.575Z,13.90
2022-10-13T02:17:29.266Z,14.18
2022-10-13T02:19:56.581Z,14.02
2022-10-13T02:22:26.978Z,13.73
2022-10-13T02:24:54.096Z,13.45
2022-10-13T02:27:21.968Z,13.30
2022-10-13T02:29:57.078Z,12.80
2022-10-13T02:32:24.235Z,12.48
2022-10-13T02:34:51.870Z,13.55
2022-10-13T02:37:19.485Z,12.50
2022-10-13T02:39:46.643Z,12.85
2022-10-13T02:42:13.955Z,13.68
2022-10-13T02:44:41.135Z,13.23
2022-10-13T02:47:08.252Z,12.73
2022-10-13T02:49:35.468Z,13.23
2022-10-13T02:52:02.631Z,12.73
2022-10-13T02:54:29.736Z,13.05
2022-10-13T02:56:56.833Z,13.43
2022-10-13T02:59:24.007Z,13.75
2022-10-13T03:01:51.147Z,13.80
2022-10-13T03:04:18.321Z,12.13
2022-10-13T03:06:45.504Z,12.80
2022-10-13T03:09:12.720Z,13.48
2022-10-13T03:11:40.132Z,12.95
2022-10-13T03:14:07.285Z,13.93
2022-10-13T03:16:34.421Z,13.02
2022-10-13T03:19:01.545Z,13.45
2022-10-13T03:21:29.410Z,12.43
2022-10-13T03:23:56.565Z,13.05
2022-10-13T03:26:23.749Z,13.45
2022-10-13T03:28:51.456Z,12.60
2022-10-13T03:31:19.074Z,13.40
2022-10-13T03:33:46.453Z,12.38
2022-10-13T03:36:13.723Z,13.40
2022-10-13T03:38:41.110Z,12.90
2022-10-13T03:41:09.692Z,12.55
2022-10-13T03:43:36.999Z,12.65
2022-10-13T03:46:05.202Z,12.38
2022-10-13T03:48:33.010Z,13.15
2022-10-13T03:51:00.198Z,11.43
2022-10-13T03:53:27.402Z,12.07
2022-10-13T03:55:55.797Z,12.70
2022-10-13T03:58:24.273Z,12.70
2022-10-13T04:00:52.233Z,12.25
2022-10-13T04:03:19.609Z,12.18
2022-10-13T04:05:47.356Z,12.13
2022-10-13T04:08:15.062Z,13.32
2022-10-13T04:10:42.554Z,11.77
2022-10-13T04:13:09.750Z,12.30
2022-10-13T04:15:37.708Z,11.40
2022-10-13T04:18:05.725Z,12.43
2022-10-13T04:20:33.027Z,11.98
2022-10-13T04:23:00.138Z,12.90
2022-10-13T04:25:27.251Z,12.13
2022-10-13T04:27:54.421Z,13.07
2022-10-13T04:30:21.578Z,12.85
2022-10-13T04:32:48.704Z,12.18
2022-10-13T04:35:15.924Z,13.02
2022-10-13T04:37:45.188Z,11.35
2022-10-13T04:40:12.536Z,12.48
2022-10-13T04:42:39.786Z,11.07
2022-10-13T04:45:07.217Z,11.75
2022-10-13T04:47:37.157Z,11.57
2022-10-13T04:50:04.618Z,11.10
2022-10-13T04:52:31.778Z,11.82
2022-10-13T04:54:58.911Z,11.85
2022-10-13T04:57:26.262Z,12.57
2022-10-13T04:59:53.380Z,11.10
2022-10-13T05:02:20.826Z,11.20
2022-10-13T05:04:48.281Z,11.20
2022-10-13T05:07:17.941Z,12.07
2022-10-13T05:09:45.590Z,10.88
2022-10-13T05:12:12.789Z,10.90
2022-10-13T05:14:39.914Z,11.35
2022-10-13T05:17:07.114Z,11.32
2022-10-13T05:19:34.303Z,11.95
2022-10-13T05:22:01.426Z,10.68
2022-10-13T05:24:39.876Z,10.70
2022-10-13T05:27:07.680Z,11.95
2022-10-13T05:29:34.849Z,11.82
2022-10-13T05:32:02.064Z,11.65
2022-10-13T05:34:29.325Z,12.10
2022-10-13T05:36:56.497Z,11.27
2022-10-13T05:39:23.821Z,10.90
2022-10-13T05:41:50.973Z,12.20
2022-10-13T05:44:18.149Z,11.50
2022-10-13T05:46:45.522Z,12.07
2022-10-13T05:49:12.694Z,10.55
2022-10-13T05:51:42.232Z,11.38
2022-10-13T05:54:23.296Z,11.73
2022-10-13T05:56:58.958Z,11.38
2022-10-13T05:59:27.700Z,11.45
2022-10-13T06:01:55.435Z,11.50
2022-10-13T06:04:35.208Z,10.48
2022-10-13T06:07:02.885Z,12.10
2022-10-13T06:09:34.618Z,10.98
2022-10-13T06:12:01.817Z,11.48
2022-10-13T06:14:28.962Z,11.70
2022-10-13T06:16:56.223Z,11.88
2022-10-13T06:19:23.394Z,12.23
2022-10-13T06:21:50.524Z,12.10
2022-10-13T06:24:17.665Z,11.43
2022-10-13T06:26:44.846Z,11.02
2022-10-13T06:29:11.978Z,10.35
2022-10-13T06:31:39.154Z,12.65
2022-10-13T06:34:06.321Z,11.40
2022-10-13T06:36:33.482Z,11.63
2022-10-13T06:39:00.607Z,12.27
2022-10-13T06:41:27.784Z,11.52
2022-10-13T06:43:54.973Z,12.57
2022-10-13T06:46:22.108Z,12.77
2022-10-13T06:48:52.615Z,13.35
2022-10-13T06:51:19.802Z,12.23
2022-10-13T06:53:46.964Z,12.45
2022-10-13T06:56:14.385Z,13.90
2022-10-13T06:58:41.502Z,13.82
2022-10-13T07:01:09.238Z,13.95
2022-10-13T07:03:36.596Z,13.70
2022-10-13T07:06:04.661Z,13.85
2022-10-13T07:08:32.283Z,14.13
2022-10-13T07:10:59.538Z,13.40
2022-10-13T07:13:26.682Z,13.52
2022-10-13T07:15:53.829Z,14.07
2022-10-13T07:18:21.042Z,16.08
2022-10-13T07:20:48.158Z,15.88
2022-10-13T07:23:15.294Z,15.32
2022-10-13T07:25:42.471Z,14.55
2022-10-13T07:28:09.654Z,15.98
2022-10-13T07:30:39.066Z,16.17
2022-10-13T07:33:06.274Z,17.02
2022-10-13T07:35:33.411Z,19.17
2022-10-13T07:38:00.529Z,18.58
2022-10-13T07:40:27.877Z,18.55
2022-10-13T07:42:56.585Z,17.77
2022-10-13T07:45:24.134Z,15.25
2022-10-13T07:47:51.316Z,17.95
2022-10-13T07:50:18.497Z,15.50
2022-10-13T07:52:46.003Z,16.00
2022-10-13T07:55:13.260Z,15.85
2022-10-13T07:57:40.379Z,15.70
2022-10-13T08:00:07.860Z,15.48
2022-10-13T08:02:35.243Z,15.55
2022-10-13T08:05:03.986Z,14.68
2022-10-13T08:07:31.197Z,14.50
2022-10-13T08:09:58.481Z,13.45
2022-10-13T08:12:25.580Z,14.00
2022-10-13T08:14:52.702Z,15.30
2022-10-13T08:17:20.130Z,15.27
2022-10-13T08:19:47.488Z,15.70
2022-10-13T08:22:14.690Z,14.52
2022-10-13T08:24:42.008Z,14.52
2022-10-13T08:27:11.738Z,14.18
2022-10-13T08:29:38.963Z,11.85
2022-10-13T08:32:06.350Z,10.57
2022-10-13T08:34:34.051Z,9.88
2022-10-13T08:37:01.172Z,10.90
2022-10-13T08:39:28.397Z,9.82
2022-10-13T08:41:57.744Z,9.10
2022-10-13T08:47:42.087Z,7.63
2022-10-13T08:50:14.840Z,9.00
2022-10-13T08:52:50.258Z,8.93
2022-10-13T08:55:25.522Z,9.32
2022-10-13T08:57:57.072Z,8.13
2022-10-13T09:00:26.791Z,9.60
2022-10-13T09:02:54.816Z,8.20
2022-10-13T09:05:42.834Z,8.63
2022-10-13T09:08:17.775Z,9.48
2022-10-13T09:10:52.179Z,9.30
2022-10-13T09:13:24.359Z,9.18
2022-10-13T09:15:52.135Z,8.80
2022-10-13T09:18:28.644Z,9.35
2022-10-13T09:21:10.406Z,7.82
2022-10-13T09:23:41.809Z,8.82
2022-10-13T09:26:14.680Z,9.52
2022-10-13T09:28:42.724Z,9.52
2022-10-13T09:31:19.055Z,9.52
2022-10-13T09:33:48.264Z,10.25
2022-10-13T09:36:16.892Z,9.80
2022-10-13T09:38:46.377Z,11.18
2022-10-13T09:41:16.860Z,11.50
2022-10-13T09:46:18.142Z,12.52
2022-10-13T09:51:31.852Z,12.30
2022-10-13T09:54:01.180Z,13.68
2022-10-13T09:56:58.552Z,13.00
2022-10-13T09:59:37.090Z,14.18
2022-10-13T10:02:25.112Z,14.63
2022-10-13T10:04:55.264Z,15.02
2022-10-13T10:07:26.502Z,15.52
2022-10-13T10:10:13.819Z,15.18
2022-10-13T10:12:45.178Z,15.68
2022-10-13T10:15:24.347Z,14.00
2022-10-13T10:18:01.989Z,12.68
2022-10-13T10:20:41.943Z,7.78
2022-10-13T10:23:15.542Z,8.07
2022-10-13T10:25:48.155Z,8.43
2022-10-13T10:28:15.680Z,11.07
2022-10-13T10:30:51.275Z,11.65
2022-10-13T10:33:25.213Z,11.90
2022-10-13T10:35:55.716Z,9.88
2022-10-13T10:38:22.835Z,8.45
2022-10-13T10:40:55.955Z,7.38
2022-10-13T10:43:23.035Z,9.20
2022-10-13T10:45:50.164Z,7.18
2022-10-13T10:48:17.446Z,7.15
2022-10-13T10:50:44.842Z,6.07
2022-10-13T10:53:30.247Z,6.65
2022-10-13T10:56:16.553Z,6.97
2022-10-13T10:58:49.626Z,6.10
2022-10-13T11:01:16.834Z,5.57
2022-10-13T11:03:49.632Z,5.25
2022-10-13T11:06:16.743Z,5.55
2022-10-13T11:08:48.422Z,7.13
2022-10-13T11:11:37.447Z,5.57
2022-10-13T11:14:07.934Z,5.93
2022-10-13T11:16:35.163Z,5.80
2022-10-13T11:19:07.017Z,5.63
2022-10-13T11:21:52.967Z,5.45
2022-10-13T11:24:30.080Z,5.18
2022-10-13T11:27:17.452Z,5.15
2022-10-13T11:29:45.605Z,5.70
2022-10-13T11:32:41.475Z,6.63
2022-10-13T11:35:08.648Z,6.20
2022-10-13T11:37:55.811Z,7.47
2022-10-13T11:40:36.016Z,6.20
2022-10-13T11:43:08.254Z,6.10
2022-10-13T11:45:54.202Z,5.45
2022-10-13T11:48:40.099Z,6.03
2022-10-13T11:51:12.589Z,6.53
2022-10-13T11:53:42.636Z,6.53
2022-10-13T11:56:19.665Z,5.43
2022-10-13T11:58:47.001Z,5.38
2022-10-13T12:01:15.202Z,5.47
2022-10-13T12:03:43.870Z,6.03
2022-10-13T12:06:18.414Z,5.85
2022-10-13T12:08:52.488Z,6.50
2022-10-13T12:11:29.621Z,5.80
2022-10-13T12:13:57.126Z,6.10
2022-10-13T12:16:24.442Z,5.63
2022-10-13T12:18:51.649Z,5.68
2022-10-13T12:21:21.089Z,6.25
2022-10-13T12:23:49.525Z,6.07
2022-10-13T12:26:18.049Z,6.20
2022-10-13T12:28:45.184Z,6.13
2022-10-13T12:31:18.798Z,6.72
2022-10-13T12:33:52.113Z,6.82
2022-10-13T12:36:20.058Z,6.10
2022-10-13T12:38:51.487Z,6.57
2022-10-13T12:41:21.918Z,6.93
2022-10-13T12:43:49.208Z,6.75
2022-10-13T12:46:35.971Z,5.95
2022-10-13T12:49:07.090Z,6.38
2022-10-13T12:54:06.881Z,7.13
2022-10-13T12:56:34.068Z,6.07
2022-10-13T12:59:01.228Z,7.00
2022-10-13T13:01:28.388Z,6.60
2022-10-13T13:04:00.355Z,6.70
2022-10-13T13:06:30.444Z,6.78
2022-10-13T13:09:12.902Z,7.45
2022-10-13T13:11:40.079Z,8.05
2022-10-13T13:14:48.409Z,7.70
2022-10-13T13:17:38.514Z,7.97
2022-10-13T13:20:19.413Z,7.13
2022-10-13T13:25:13.764Z,7.20
2022-10-13T13:27:41.011Z,7.05
2022-10-13T13:30:13.149Z,7.43
2022-10-13T13:32:41.207Z,7.50
2022-10-13T13:35:09.034Z,6.55
2022-10-13T13:37:38.092Z,7.80
2022-10-13T13:40:05.759Z,7.38
2022-10-13T13:42:32.923Z,7.10
2022-10-13T13:45:00.214Z,7.00
2022-10-13T13:47:29.169Z,7.28
2022-10-13T13:49:57.184Z,6.40
2022-10-13T13:52:25.590Z,6.60
2022-10-13T13:54:53.075Z,7.43
2022-10-13T13:57:20.914Z,6.55
2022-10-13T13:59:48.353Z,6.43
2022-10-13T14:02:16.864Z,6.20
2022-10-13T14:04:45.343Z,6.00
2022-10-13T14:07:13.001Z,6.05
2022-10-13T14:09:40.307Z,5.70
2022-10-13T14:12:07.545Z,6.32
2022-10-13T14:14:34.825Z,5.70
2022-10-13T14:17:03.562Z,5.68
2022-10-13T14:19:31.300Z,5.38
2022-10-13T14:21:58.608Z,5.35
2022-10-13T14:24:25.805Z,5.22
2022-10-13T14:26:52.942Z,5.93
2022-10-13T14:29:20.202Z,6.93
2022-10-13T14:31:47.464Z,7.43
2022-10-13T14:34:14.666Z,6.88
2022-10-13T14:36:41.853Z,7.30
2022-10-13T14:39:09.018Z,7.90
2022-10-13T14:41:36.216Z,5.70
2022-10-13T14:44:03.508Z,7.80
2022-10-13T14:46:30.677Z,7.45
2022-10-13T14:48:58.933Z,10.68
2022-10-13T14:51:26.095Z,8.45
2022-10-13T14:53:53.318Z,6.55
2022-10-13T14:56:21.930Z,5.90
2022-10-13T14:58:50.060Z,5.97
2022-10-13T15:01:17.807Z,6.15
2022-10-13T15:03:45.671Z,6.32
2022-10-13T15:06:16.732Z,5.35
2022-10-13T15:08:44.237Z,6.28
2022-10-13T15:11:11.645Z,13.30
2022-10-13T15:13:38.962Z,9.43
2022-10-13T15:16:06.417Z,9.52
2022-10-13T15:18:34.044Z,12.35
2022-10-13T15:21:01.374Z,5.70
2022-10-13T15:23:28.722Z,6.53
2022-10-13T15:25:58.872Z,6.72
2022-10-13T15:28:27.738Z,7.10
2022-10-13T15:30:55.157Z,8.02
2022-10-13T15:33:22.903Z,8.38
2022-10-13T15:35:50.697Z,7.10
2022-10-13T15:38:18.714Z,5.30
2022-10-13T15:40:46.090Z,11.43
2022-10-13T15:43:13.529Z,10.95
2022-10-13T15:45:40.855Z,13.52
2022-10-13T15:48:08.378Z,9.25
2022-10-13T15:50:39.398Z,7.78
2022-10-13T15:53:06.608Z,7.68
2022-10-13T15:55:34.242Z,6.38
2022-10-13T15:58:01.401Z,4.13
2022-10-13T16:00:28.635Z,4.05
2022-10-13T16:02:55.757Z,3.70
2022-10-13T16:05:23.444Z,3.58
2022-10-13T16:07:50.569Z,6.30
2022-10-13T16:10:17.690Z,6.28
2022-10-13T16:12:49.380Z,8.30
2022-10-13T16:15:17.669Z,5.95
2022-10-13T16:17:47.904Z,6.32
2022-10-13T16:20:15.106Z,6.37
2022-10-13T16:22:42.232Z,6.70
2022-10-13T16:25:11.046Z,7.60
2022-10-13T16:27:43.147Z,8.63
2022-10-13T16:30:11.505Z,8.15
2022-10-13T16:32:39.918Z,8.65
2022-10-13T16:35:07.720Z,9.82
2022-10-13T16:37:35.042Z,8.82
2022-10-13T16:40:02.212Z,9.13
2022-10-13T16:42:29.389Z,8.85
2022-10-13T16:44:56.653Z,8.77
2022-10-13T16:47:24.107Z,8.65
2022-10-13T16:49:51.737Z,7.93
2022-10-13T16:52:18.927Z,9.68
2022-10-13T16:54:47.120Z,9.30
2022-10-13T16:57:14.603Z,8.68
2022-10-13T16:59:41.861Z,8.93
2022-10-13T17:02:14.208Z,9.27
2022-10-13T17:04:41.436Z,8.38
2022-10-13T17:07:08.634Z,9.65
2022-10-13T17:09:35.835Z,9.07
2022-10-13T17:12:03.779Z,9.10
2022-10-13T17:14:31.267Z,8.73
2022-10-13T17:16:58.514Z,7.93
2022-10-13T17:19:25.960Z,7.95
2022-10-13T17:21:53.228Z,8.30
2022-10-13T17:24:20.387Z,8.88
2022-10-13T17:26:49.449Z,7.80
2022-10-13T17:29:16.899Z,8.40
2022-10-13T17:31:44.125Z,8.35
2022-10-13T17:34:11.282Z,9.00
2022-10-13T17:36:38.489Z,8.85
2022-10-13T17:39:06.916Z,8.35
2022-10-13T17:41:34.134Z,11.18
2022-10-13T17:44:01.324Z,12.18
2022-10-13T17:46:38.931Z,11.55
2022-10-13T17:49:07.461Z,12.20
2022-10-13T17:51:34.588Z,12.43
2022-10-13T17:54:01.829Z,12.48
2022-10-13T17:56:31.310Z,12.25
2022-10-13T17:58:59.673Z,10.98
2022-10-13T18:01:26.964Z,10.43
2022-10-13T18:03:57.847Z,12.35
2022-10-13T18:06:25.158Z,11.20
2022-10-13T18:08:52.622Z,11.02
2022-10-13T18:11:21.347Z,11.23
2022-10-13T18:13:48.936Z,12.10
2022-10-13T18:16:20.957Z,11.00
2022-10-13T18:18:50.198Z,11.55
2022-10-13T18:21:18.523Z,10.77
2022-10-13T18:23:45.826Z,11.25
2022-10-13T18:26:17.236Z,11.95
2022-10-13T18:28:45.024Z,11.15
2022-10-13T18:31:13.889Z,11.63
2022-10-13T18:33:41.534Z,11.02
2022-10-13T18:36:19.929Z,10.90
2022-10-13T18:38:54.208Z,11.25
2022-10-13T18:41:22.774Z,11.10
2022-10-13T18:43:50.097Z,11.05
2022-10-13T18:46:17.481Z,12.48
2022-10-13T18:48:44.605Z,11.95
2022-10-13T18:51:13.077Z,11.90
2022-10-13T18:53:41.642Z,11.35
2022-10-13T18:56:10.349Z,12.50
2022-10-13T18:58:37.537Z,12.20
2022-10-13T19:01:06.088Z,13.05
2022-10-13T19:03:33.806Z,13.55
2022-10-13T19:06:00.980Z,13.02
2022-10-13T19:08:29.535Z,12.25
2022-10-13T19:10:56.975Z,11.93
2022-10-13T19:13:24.161Z,11.55
2022-10-13T19:15:51.495Z,9.45
2022-10-13T19:18:18.629Z,10.88
2022-10-13T19:20:46.193Z,9.75
2022-10-13T19:23:16.074Z,11.35
2022-10-13T19:25:44.059Z,11.20
2022-10-13T19:28:11.822Z,10.65
2022-10-13T19:30:39.715Z,11.25
2022-10-13T19:33:07.954Z,11.13
2022-10-13T19:35:42.249Z,13.18
2022-10-13T19:38:09.775Z,12.45
2022-10-13T19:40:42.158Z,14.32
2022-10-13T19:43:09.920Z,15.20
2022-10-13T19:45:37.039Z,11.75
2022-10-13T19:48:04.185Z,11.15
2022-10-13T19:50:33.709Z,12.25
2022-10-13T19:53:00.858Z,14.77
2022-10-13T19:55:28.233Z,14.73
2022-10-13T19:57:55.472Z,14.75
2022-10-13T20:00:22.776Z,13.48
2022-10-13T20:02:49.967Z,14.05
2022-10-13T20:05:18.269Z,14.20
2022-10-13T20:07:48.015Z,14.38
2022-10-13T20:10:15.185Z,16.98
2022-10-13T20:12:42.365Z,17.35
2022-10-13T20:15:09.534Z,17.23
2022-10-13T20:17:36.636Z,17.33
2022-10-13T20:20:04.457Z,14.60
2022-10-13T20:22:31.682Z,17.73
2022-10-13T20:24:58.845Z,21.25
2022-10-13T20:27:26.103Z,20.48
2022-10-13T20:29:53.243Z,21.15
2022-10-13T20:32:20.372Z,21.15
2022-10-13T20:34:47.536Z,20.10
2022-10-13T20:37:14.682Z,20.33
2022-10-13T20:39:41.781Z,21.30
2022-10-13T20:42:08.992Z,20.58
2022-10-13T20:44:36.125Z,15.73
2022-10-13T20:47:03.488Z,13.57
2022-10-13T20:49:30.652Z,13.77
2022-10-13T20:51:57.756Z,14.48
2022-10-13T20:54:25.116Z,13.75
2022-10-13T20:56:52.971Z,15.45
2022-10-13T20:59:20.140Z,15.70
2022-10-13T21:01:47.248Z,18.35
2022-10-13T21:04:14.554Z,17.30
2022-10-13T21:06:42.026Z,17.40
2022-10-13T21:09:09.179Z,16.92
2022-10-13T21:11:36.566Z,16.65
2022-10-13T21:14:06.741Z,15.70
2022-10-13T21:16:33.964Z,16.10
2022-10-13T21:19:01.184Z,21.15
2022-10-13T21:21:29.945Z,25.38
2022-10-13T21:24:01.599Z,20.40
2022-10-13T21:26:29.849Z,15.82
2022-10-13T21:28:57.298Z,14.88
2022-10-13T21:31:24.921Z,16.10
2022-10-13T21:33:52.071Z,18.00
2022-10-13T21:36:19.201Z,21.40
2022-10-13T21:38:47.117Z,32.58
2022-10-13T21:41:15.046Z,40.35
2022-10-13T21:43:42.189Z,41.17
2022-10-13T21:46:09.751Z,45.45
2022-10-13T21:48:37.223Z,46.13
2022-10-13T21:51:18.570Z,40.97
2022-10-13T21:56:12.794Z,42.35
2022-10-13T21:58:40.397Z,42.72
2022-10-13T22:01:07.638Z,45.55
2022-10-13T22:03:35.439Z,45.55
2022-10-13T22:06:07.007Z,47.90
2022-10-13T22:08:38.722Z,47.80
2022-10-13T22:11:06.905Z,46.90
2022-10-13T22:13:34.334Z,51.75
2022-10-13T22:16:05.794Z,52.38
2022-10-13T22:18:32.983Z,48.05
2022-10-13T22:21:04.378Z,44.85
2022-10-13T22:23:31.665Z,45.33
2022-10-13T22:25:58.859Z,42.20
2022-10-13T22:28:26.372Z,44.88
2022-10-13T22:30:53.874Z,43.58
2022-10-13T22:33:21.062Z,45.22
2022-10-13T22:35:48.236Z,40.75
2022-10-13T22:38:15.537Z,38.03
2022-10-13T22:40:42.884Z,37.20
2022-10-13T22:43:10.006Z,31.23
2022-10-13T22:45:37.160Z,32.38
2022-10-13T22:48:04.429Z,31.48
2022-10-13T22:50:31.556Z,34.55
2022-10-13T22:52:58.680Z,33.70
2022-10-13T22:55:25.861Z,33.22
2022-10-13T22:57:53.258Z,31.85
2022-10-13T23:00:20.454Z,30.58
2022-10-13T23:02:47.615Z,29.60
2022-10-13T23:05:14.826Z,28.38
2022-10-13T23:07:41.947Z,27.05
2022-10-13T23:10:09.342Z,23.77
2022-10-13T23:12:36.485Z,21.83
2022-10-13T23:15:03.660Z,21.23
2022-10-13T23:17:30.823Z,24.08
2022-10-13T23:19:57.948Z,24.77
2022-10-13T23:22:25.137Z,33.00
2022-10-13T23:24:52.313Z,32.22
2022-10-13T23:27:19.846Z,33.65
2022-10-13T23:29:47.192Z,31.73
2022-10-13T23:32:14.373Z,34.25
2022-10-13T23:34:41.486Z,32.53
2022-10-13T23:37:08.663Z,32.92
2022-10-13T23:39:35.945Z,28.30
2022-10-13T23:42:03.050Z,24.48
2022-10-13T23:44:30.212Z,23.45
2022-10-13T23:46:57.457Z,20.83
2022-10-13T23:49:24.579Z,19.10
2022-10-13T23:51:51.671Z,18.20
2022-10-13T23:54:18.850Z,17.75
2022-10-13T23:56:45.992Z,15.07
2022-10-13T23:59:13.097Z,15.07
